Overview Statistics Trail Chart Weather Telemetry Raw packets
 

This is the latest recevied weather packets stored in our database for station/object K5OLV. If no packets are shown the sender has not sent any weather packets the latest 10 day(s).

<< 89 90 91 92 93 94 95 >>
Time Temp. Humidity Pressure Rain* Wind** Luminosity Snow
1787956685 26.11° C 80% 1014.7 hPa 0 mm - 48 W/m² -
1787956381 26.11° C 80% 1014.9 hPa 0 mm - 69 W/m² -
1787956075 26.67° C 79% 1015 hPa 0 mm - 63 W/m² -
1787955771 26.67° C 76% 1014.9 hPa 0 mm - 55 W/m² -
1787955467 26.67° C 76% 1014.8 hPa 0 mm - 52 W/m² -
1787955165 26.67° C 78% 1014.7 hPa 0 mm - 88 W/m² -
1787954861 26.67° C 76% 1014.8 hPa 0 mm - 52 W/m² -
1787954556 27.78° C 74% 1014.9 hPa 0 mm - 57 W/m² -
1787954251 28.89° C 68% 1015 hPa 0 mm - 73 W/m² -
1787953951 30° C 64% 1014.9 hPa 0 mm - 144 W/m² -
1787953650 29.44° C 65% 1014.9 hPa 0 mm - 367 W/m² -
1787953345 30° C 65% 1014.9 hPa 0 mm - 385 W/m² -
1787953043 28.89° C 72% 1014.8 hPa 0 mm - 400 W/m² -
1787952742 27.78° C 67% 1014.9 hPa 0 mm - 157 W/m² -
1787952437 27.78° C 68% 1014.9 hPa 0 mm - 126 W/m² -
1787952134 27.78° C 68% 1014.8 hPa 0 mm - 117 W/m² -
1787951832 28.89° C 66% 1014.8 hPa 0 mm - 104 W/m² -
1787951528 30° C 61% 1014.9 hPa 0 mm - 358 W/m² -
1787951224 29.44° C 62% 1014.8 hPa 0 mm - 459 W/m² -
1787950920 29.44° C 67% 1015.1 hPa 0 mm - 436 W/m² -
1787950615 29.44° C 65% 1014.8 hPa 0 mm - 463 W/m² -
1787950311 28.89° C 65% 1014.8 hPa 0 mm - 452 W/m² -
1787950007 29.44° C 64% 1014.8 hPa 0 mm - 311 W/m² -
1787949702 29.44° C 65% 1014.8 hPa 0 mm - 472 W/m² -
1787949401 29.44° C 64% 1014.9 hPa 0 mm - 505 W/m² -

* Rain latest hour (hover to see other rain measurements)
** Current wind speed in m/s (hover to see current wind gust speed)